sensor_id;sensor_type;location;lat;lon;timestamp;temperature;humidity
57264;DHT22;43113;53.124;6.092;2022-10-19T00:01:21;8.40;99.90
57264;DHT22;43113;53.124;6.092;2022-10-19T00:03:50;8.40;99.90
57264;DHT22;43113;53.124;6.092;2022-10-19T00:06:22;8.40;99.90
57264;DHT22;43113;53.124;6.092;2022-10-19T00:08:58;8.40;99.90
57264;DHT22;43113;53.124;6.092;2022-10-19T00:11:25;8.50;99.90
57264;DHT22;43113;53.124;6.092;2022-10-19T00:13:52;8.60;99.90
57264;DHT22;43113;53.124;6.092;2022-10-19T00:16:18;8.90;99.90
57264;DHT22;43113;53.124;6.092;2022-10-19T00:18:44;8.70;99.90
57264;DHT22;43113;53.124;6.092;2022-10-19T00:21:13;8.80;99.90
57264;DHT22;43113;53.124;6.092;2022-10-19T00:23:39;8.90;99.90
57264;DHT22;43113;53.124;6.092;2022-10-19T00:26:05;9.00;99.90
57264;DHT22;43113;53.124;6.092;2022-10-19T00:28:31;9.10;99.90
57264;DHT22;43113;53.124;6.092;2022-10-19T00:31:05;9.10;99.90
57264;DHT22;43113;53.124;6.092;2022-10-19T00:33:31;9.20;99.90
57264;DHT22;43113;53.124;6.092;2022-10-19T00:35:57;9.30;99.90
57264;DHT22;43113;53.124;6.092;2022-10-19T00:38:23;9.30;99.90
57264;DHT22;43113;53.124;6.092;2022-10-19T00:40:48;9.40;99.90
57264;DHT22;43113;53.124;6.092;2022-10-19T00:43:20;9.40;99.90
57264;DHT22;43113;53.124;6.092;2022-10-19T00:45:46;9.40;99.90
57264;DHT22;43113;53.124;6.092;2022-10-19T00:48:18;9.50;99.90
57264;DHT22;43113;53.124;6.092;2022-10-19T00:50:46;9.50;99.90
57264;DHT22;43113;53.124;6.092;2022-10-19T00:53:12;9.50;99.90
57264;DHT22;43113;53.124;6.092;2022-10-19T00:55:40;9.50;99.90
57264;DHT22;43113;53.124;6.092;2022-10-19T00:58:06;9.50;99.90
57264;DHT22;43113;53.124;6.092;2022-10-19T01:00:33;9.50;99.90
57264;DHT22;43113;53.124;6.092;2022-10-19T01:02:59;9.60;99.90
57264;DHT22;43113;53.124;6.092;2022-10-19T01:05:26;9.60;99.90
57264;DHT22;43113;53.124;6.092;2022-10-19T01:07:53;9.60;99.90
57264;DHT22;43113;53.124;6.092;2022-10-19T01:10:24;9.60;99.90
57264;DHT22;43113;53.124;6.092;2022-10-19T01:13:04;9.60;99.90
57264;DHT22;43113;53.124;6.092;2022-10-19T01:18:44;9.70;99.90
57264;DHT22;43113;53.124;6.092;2022-10-19T01:21:49;9.70;99.90
57264;DHT22;43113;53.124;6.092;2022-10-19T01:24:34;9.80;99.90
57264;DHT22;43113;53.124;6.092;2022-10-19T01:29:59;9.80;99.90
57264;DHT22;43113;53.124;6.092;2022-10-19T01:32:34;9.80;99.90
57264;DHT22;43113;53.124;6.092;2022-10-19T01:46:42;9.90;99.90
57264;DHT22;43113;53.124;6.092;2022-10-19T01:49:25;9.90;99.90
57264;DHT22;43113;53.124;6.092;2022-10-19T01:52:02;9.90;99.90
57264;DHT22;43113;53.124;6.092;2022-10-19T01:54:34;9.90;99.90
57264;DHT22;43113;53.124;6.092;2022-10-19T01:57:04;9.90;99.90
57264;DHT22;43113;53.124;6.092;2022-10-19T01:59:31;9.90;99.90
57264;DHT22;43113;53.124;6.092;2022-10-19T02:01:58;9.90;99.90
57264;DHT22;43113;53.124;6.092;2022-10-19T02:04:25;9.90;99.90
57264;DHT22;43113;53.124;6.092;2022-10-19T02:06:54;10.00;99.90
57264;DHT22;43113;53.124;6.092;2022-10-19T02:09:20;9.90;99.90
57264;DHT22;43113;53.124;6.092;2022-10-19T02:11:49;10.00;99.90
57264;DHT22;43113;53.124;6.092;2022-10-19T02:14:18;9.90;99.90
57264;DHT22;43113;53.124;6.092;2022-10-19T02:17:07;10.00;99.90
57264;DHT22;43113;53.124;6.092;2022-10-19T02:19:33;9.90;99.90
57264;DHT22;43113;53.124;6.092;2022-10-19T02:21:59;9.80;99.90
57264;DHT22;43113;53.124;6.092;2022-10-19T02:24:25;9.80;99.90
57264;DHT22;43113;53.124;6.092;2022-10-19T02:26:51;9.80;99.90
57264;DHT22;43113;53.124;6.092;2022-10-19T02:29:17;9.70;99.90
57264;DHT22;43113;53.124;6.092;2022-10-19T02:31:43;9.80;99.90
57264;DHT22;43113;53.124;6.092;2022-10-19T02:34:10;9.80;99.90
57264;DHT22;43113;53.124;6.092;2022-10-19T02:36:36;9.80;99.90
57264;DHT22;43113;53.124;6.092;2022-10-19T02:39:02;9.80;99.90
57264;DHT22;43113;53.124;6.092;2022-10-19T02:44:35;9.80;99.90
57264;DHT22;43113;53.124;6.092;2022-10-19T02:47:25;9.90;99.90
57264;DHT22;43113;53.124;6.092;2022-10-19T02:49:52;9.90;99.90
57264;DHT22;43113;53.124;6.092;2022-10-19T02:52:18;9.90;99.90
57264;DHT22;43113;53.124;6.092;2022-10-19T02:54:44;9.90;99.90
57264;DHT22;43113;53.124;6.092;2022-10-19T02:57:28;9.80;99.90
57264;DHT22;43113;53.124;6.092;2022-10-19T02:59:57;9.80;99.90
57264;DHT22;43113;53.124;6.092;2022-10-19T03:02:23;9.70;99.90
57264;DHT22;43113;53.124;6.092;2022-10-19T03:04:48;9.70;99.90
57264;DHT22;43113;53.124;6.092;2022-10-19T03:07:16;9.60;99.90
57264;DHT22;43113;53.124;6.092;2022-10-19T03:09:43;9.50;99.90
57264;DHT22;43113;53.124;6.092;2022-10-19T03:12:09;9.40;99.90
57264;DHT22;43113;53.124;6.092;2022-10-19T03:14:35;9.40;99.90
57264;DHT22;43113;53.124;6.092;2022-10-19T03:17:02;9.20;99.90
57264;DHT22;43113;53.124;6.092;2022-10-19T03:19:27;9.20;99.90
57264;DHT22;43113;53.124;6.092;2022-10-19T03:21:53;9.10;99.90
57264;DHT22;43113;53.124;6.092;2022-10-19T03:24:19;9.00;99.90
57264;DHT22;43113;53.124;6.092;2022-10-19T03:26:44;8.90;99.90
57264;DHT22;43113;53.124;6.092;2022-10-19T03:29:10;9.20;99.90
57264;DHT22;43113;53.124;6.092;2022-10-19T03:31:36;8.70;99.90
57264;DHT22;43113;53.124;6.092;2022-10-19T03:34:02;8.60;99.90
57264;DHT22;43113;53.124;6.092;2022-10-19T03:36:32;8.60;99.90
57264;DHT22;43113;53.124;6.092;2022-10-19T03:39:00;8.50;99.90
57264;DHT22;43113;53.124;6.092;2022-10-19T03:41:28;8.40;99.90
57264;DHT22;43113;53.124;6.092;2022-10-19T03:43:55;8.40;99.90
57264;DHT22;43113;53.124;6.092;2022-10-19T03:46:21;8.20;99.90
57264;DHT22;43113;53.124;6.092;2022-10-19T03:48:47;8.10;99.90
57264;DHT22;43113;53.124;6.092;2022-10-19T03:51:16;8.00;99.90
57264;DHT22;43113;53.124;6.092;2022-10-19T03:53:42;8.00;99.90
57264;DHT22;43113;53.124;6.092;2022-10-19T03:56:15;7.90;99.90
57264;DHT22;43113;53.124;6.092;2022-10-19T03:58:42;7.80;99.90
57264;DHT22;43113;53.124;6.092;2022-10-19T04:01:14;8.40;99.90
57264;DHT22;43113;53.124;6.092;2022-10-19T04:03:40;7.80;99.90
57264;DHT22;43113;53.124;6.092;2022-10-19T04:06:17;7.80;99.90
57264;DHT22;43113;53.124;6.092;2022-10-19T04:08:43;7.90;99.90
57264;DHT22;43113;53.124;6.092;2022-10-19T04:11:13;8.00;99.90
57264;DHT22;43113;53.124;6.092;2022-10-19T04:13:40;7.70;99.90
57264;DHT22;43113;53.124;6.092;2022-10-19T04:16:06;7.70;99.90
57264;DHT22;43113;53.124;6.092;2022-10-19T04:18:32;7.70;99.90
57264;DHT22;43113;53.124;6.092;2022-10-19T04:21:02;7.70;99.90
57264;DHT22;43113;53.124;6.092;2022-10-19T04:23:31;7.70;99.90
57264;DHT22;43113;53.124;6.092;2022-10-19T04:26:01;7.70;99.90
57264;DHT22;43113;53.124;6.092;2022-10-19T04:28:28;7.90;99.90
57264;DHT22;43113;53.124;6.092;2022-10-19T04:30:54;7.70;99.90
57264;DHT22;43113;53.124;6.092;2022-10-19T04:33:19;7.70;99.90
57264;DHT22;43113;53.124;6.092;2022-10-19T04:35:45;7.80;99.90
57264;DHT22;43113;53.124;6.092;2022-10-19T04:38:11;7.80;99.90
57264;DHT22;43113;53.124;6.092;2022-10-19T04:40:37;7.80;99.90
57264;DHT22;43113;53.124;6.092;2022-10-19T04:43:03;7.80;99.90
57264;DHT22;43113;53.124;6.092;2022-10-19T04:45:29;8.00;99.90
57264;DHT22;43113;53.124;6.092;2022-10-19T04:47:55;7.80;99.90
57264;DHT22;43113;53.124;6.092;2022-10-19T04:50:25;8.10;99.90
57264;DHT22;43113;53.124;6.092;2022-10-19T04:52:51;7.90;99.90
57264;DHT22;43113;53.124;6.092;2022-10-19T04:55:16;7.90;99.90
57264;DHT22;43113;53.124;6.092;2022-10-19T04:57:42;7.90;99.90
57264;DHT22;43113;53.124;6.092;2022-10-19T05:00:09;8.00;99.90
57264;DHT22;43113;53.124;6.092;2022-10-19T05:02:34;8.00;99.90
57264;DHT22;43113;53.124;6.092;2022-10-19T05:05:00;8.00;99.90
57264;DHT22;43113;53.124;6.092;2022-10-19T05:07:26;8.00;99.90
57264;DHT22;43113;53.124;6.092;2022-10-19T05:09:51;8.00;99.90
57264;DHT22;43113;53.124;6.092;2022-10-19T05:12:17;8.00;99.90
57264;DHT22;43113;53.124;6.092;2022-10-19T05:14:43;8.00;99.90
57264;DHT22;43113;53.124;6.092;2022-10-19T05:17:08;8.00;99.90
57264;DHT22;43113;53.124;6.092;2022-10-19T05:19:34;8.00;99.90
57264;DHT22;43113;53.124;6.092;2022-10-19T05:22:00;8.00;99.90
57264;DHT22;43113;53.124;6.092;2022-10-19T05:24:25;8.00;99.90
57264;DHT22;43113;53.124;6.092;2022-10-19T05:26:51;8.10;99.90
57264;DHT22;43113;53.124;6.092;2022-10-19T05:29:17;8.10;99.90
57264;DHT22;43113;53.124;6.092;2022-10-19T05:31:43;8.20;99.90
57264;DHT22;43113;53.124;6.092;2022-10-19T05:34:08;8.20;99.90
57264;DHT22;43113;53.124;6.092;2022-10-19T05:36:36;8.20;99.90
57264;DHT22;43113;53.124;6.092;2022-10-19T05:39:05;8.30;99.90
57264;DHT22;43113;53.124;6.092;2022-10-19T05:41:31;8.30;99.90
57264;DHT22;43113;53.124;6.092;2022-10-19T05:43:59;8.30;99.90
57264;DHT22;43113;53.124;6.092;2022-10-19T05:46:26;8.40;99.90
57264;DHT22;43113;53.124;6.092;2022-10-19T05:48:54;8.40;99.90
57264;DHT22;43113;53.124;6.092;2022-10-19T05:51:21;8.40;99.90
57264;DHT22;43113;53.124;6.092;2022-10-19T05:53:47;8.50;99.90
57264;DHT22;43113;53.124;6.092;2022-10-19T05:56:22;8.50;99.90
57264;DHT22;43113;53.124;6.092;2022-10-19T05:58:48;8.60;99.90
57264;DHT22;43113;53.124;6.092;2022-10-19T06:01:15;8.80;99.90
57264;DHT22;43113;53.124;6.092;2022-10-19T06:03:43;8.70;99.90
57264;DHT22;43113;53.124;6.092;2022-10-19T06:06:09;8.70;99.90
57264;DHT22;43113;53.124;6.092;2022-10-19T06:08:36;8.80;99.90
57264;DHT22;43113;53.124;6.092;2022-10-19T06:11:06;8.80;99.90
57264;DHT22;43113;53.124;6.092;2022-10-19T06:13:32;8.90;99.90
57264;DHT22;43113;53.124;6.092;2022-10-19T06:15:58;8.90;99.90
57264;DHT22;43113;53.124;6.092;2022-10-19T06:18:24;9.00;99.90
57264;DHT22;43113;53.124;6.092;2022-10-19T06:20:51;9.00;99.90
57264;DHT22;43113;53.124;6.092;2022-10-19T06:23:16;9.00;99.90
57264;DHT22;43113;53.124;6.092;2022-10-19T06:25:42;9.10;99.90
57264;DHT22;43113;53.124;6.092;2022-10-19T06:28:08;9.10;99.90
57264;DHT22;43113;53.124;6.092;2022-10-19T06:30:40;9.20;99.90
57264;DHT22;43113;53.124;6.092;2022-10-19T06:33:06;9.20;99.90
57264;DHT22;43113;53.124;6.092;2022-10-19T06:35:32;9.20;99.90
57264;DHT22;43113;53.124;6.092;2022-10-19T06:37:59;9.30;99.90
57264;DHT22;43113;53.124;6.092;2022-10-19T06:40:24;9.30;99.90
57264;DHT22;43113;53.124;6.092;2022-10-19T06:42:50;9.40;99.90
57264;DHT22;43113;53.124;6.092;2022-10-19T06:45:16;9.40;99.90
57264;DHT22;43113;53.124;6.092;2022-10-19T06:47:42;9.40;99.90
57264;DHT22;43113;53.124;6.092;2022-10-19T06:50:08;9.40;99.90
57264;DHT22;43113;53.124;6.092;2022-10-19T06:52:34;9.50;99.90
57264;DHT22;43113;53.124;6.092;2022-10-19T06:55:00;9.50;99.90
57264;DHT22;43113;53.124;6.092;2022-10-19T06:57:26;9.60;99.90
57264;DHT22;43113;53.124;6.092;2022-10-19T06:59:53;9.70;99.90
57264;DHT22;43113;53.124;6.092;2022-10-19T07:02:19;9.80;99.90
57264;DHT22;43113;53.124;6.092;2022-10-19T07:04:45;9.90;99.90
57264;DHT22;43113;53.124;6.092;2022-10-19T07:07:10;10.10;99.90
57264;DHT22;43113;53.124;6.092;2022-10-19T07:09:36;10.20;99.90
57264;DHT22;43113;53.124;6.092;2022-10-19T07:12:02;10.30;99.90
57264;DHT22;43113;53.124;6.092;2022-10-19T07:14:28;10.50;99.90
57264;DHT22;43113;53.124;6.092;2022-10-19T07:16:54;10.40;99.90
57264;DHT22;43113;53.124;6.092;2022-10-19T07:19:29;11.00;99.90
57264;DHT22;43113;53.124;6.092;2022-10-19T07:21:55;11.20;99.90
57264;DHT22;43113;53.124;6.092;2022-10-19T07:24:21;11.20;99.90
57264;DHT22;43113;53.124;6.092;2022-10-19T07:26:47;11.30;99.90
57264;DHT22;43113;53.124;6.092;2022-10-19T07:29:12;11.30;99.90
57264;DHT22;43113;53.124;6.092;2022-10-19T07:31:38;11.40;99.90
57264;DHT22;43113;53.124;6.092;2022-10-19T07:34:04;11.50;99.90
57264;DHT22;43113;53.124;6.092;2022-10-19T07:36:31;11.60;99.90
57264;DHT22;43113;53.124;6.092;2022-10-19T07:39:00;11.60;99.90
57264;DHT22;43113;53.124;6.092;2022-10-19T07:41:26;11.60;99.90
57264;DHT22;43113;53.124;6.092;2022-10-19T07:43:52;11.60;99.90
57264;DHT22;43113;53.124;6.092;2022-10-19T07:46:23;11.60;99.90
57264;DHT22;43113;53.124;6.092;2022-10-19T07:48:50;11.70;99.90
57264;DHT22;43113;53.124;6.092;2022-10-19T07:51:17;11.70;99.90
57264;DHT22;43113;53.124;6.092;2022-10-19T07:53:43;11.80;99.90
57264;DHT22;43113;53.124;6.092;2022-10-19T07:56:11;11.90;99.90
57264;DHT22;43113;53.124;6.092;2022-10-19T07:58:38;12.00;99.90
57264;DHT22;43113;53.124;6.092;2022-10-19T08:01:15;12.00;99.90
57264;DHT22;43113;53.124;6.092;2022-10-19T08:03:41;12.10;99.90
57264;DHT22;43113;53.124;6.092;2022-10-19T08:06:10;12.30;99.90
57264;DHT22;43113;53.124;6.092;2022-10-19T08:08:36;12.30;99.90
57264;DHT22;43113;53.124;6.092;2022-10-19T08:11:18;12.40;99.90
57264;DHT22;43113;53.124;6.092;2022-10-19T08:13:44;12.50;99.90
57264;DHT22;43113;53.124;6.092;2022-10-19T08:16:34;12.60;99.90
57264;DHT22;43113;53.124;6.092;2022-10-19T08:19:13;12.80;99.90
57264;DHT22;43113;53.124;6.092;2022-10-19T08:21:42;12.80;99.90
57264;DHT22;43113;53.124;6.092;2022-10-19T08:24:08;12.90;99.90
57264;DHT22;43113;53.124;6.092;2022-10-19T08:26:35;12.90;99.90
57264;DHT22;43113;53.124;6.092;2022-10-19T08:29:13;12.90;99.90
57264;DHT22;43113;53.124;6.092;2022-10-19T08:31:40;13.00;99.90
57264;DHT22;43113;53.124;6.092;2022-10-19T08:34:07;13.00;99.90
57264;DHT22;43113;53.124;6.092;2022-10-19T08:36:33;13.00;99.90
57264;DHT22;43113;53.124;6.092;2022-10-19T08:39:00;13.00;99.90
57264;DHT22;43113;53.124;6.092;2022-10-19T08:49:18;13.30;99.90
57264;DHT22;43113;53.124;6.092;2022-10-19T08:51:48;13.30;99.90
57264;DHT22;43113;53.124;6.092;2022-10-19T08:54:16;13.40;99.90
57264;DHT22;43113;53.124;6.092;2022-10-19T09:07:59;13.40;99.90
57264;DHT22;43113;53.124;6.092;2022-10-19T09:10:32;13.50;99.90
57264;DHT22;43113;53.124;6.092;2022-10-19T09:13:20;13.50;99.90
57264;DHT22;43113;53.124;6.092;2022-10-19T09:15:49;13.50;99.90
57264;DHT22;43113;53.124;6.092;2022-10-19T09:18:26;13.50;99.90
57264;DHT22;43113;53.124;6.092;2022-10-19T09:26:23;13.50;99.90
57264;DHT22;43113;53.124;6.092;2022-10-19T09:29:05;13.60;99.90
57264;DHT22;43113;53.124;6.092;2022-10-19T09:31:38;13.50;99.90
57264;DHT22;43113;53.124;6.092;2022-10-19T09:36:45;13.40;99.90
57264;DHT22;43113;53.124;6.092;2022-10-19T09:39:13;13.40;99.90
57264;DHT22;43113;53.124;6.092;2022-10-19T09:44:17;13.50;99.90
57264;DHT22;43113;53.124;6.092;2022-10-19T09:49:41;13.70;99.90
57264;DHT22;43113;53.124;6.092;2022-10-19T09:52:40;13.70;99.90
57264;DHT22;43113;53.124;6.092;2022-10-19T09:57:46;14.00;99.90
57264;DHT22;43113;53.124;6.092;2022-10-19T10:00:20;14.00;99.90
57264;DHT22;43113;53.124;6.092;2022-10-19T10:02:51;13.90;99.90
57264;DHT22;43113;53.124;6.092;2022-10-19T10:05:18;13.90;99.90
57264;DHT22;43113;53.124;6.092;2022-10-19T10:07:44;13.90;99.90
57264;DHT22;43113;53.124;6.092;2022-10-19T10:12:45;13.80;99.90
57264;DHT22;43113;53.124;6.092;2022-10-19T10:15:17;14.10;99.90
57264;DHT22;43113;53.124;6.092;2022-10-19T10:17:45;14.10;99.90
57264;DHT22;43113;53.124;6.092;2022-10-19T10:20:29;14.20;99.90
57264;DHT22;43113;53.124;6.092;2022-10-19T10:23:02;14.40;99.90
57264;DHT22;43113;53.124;6.092;2022-10-19T10:25:33;14.60;99.90
57264;DHT22;43113;53.124;6.092;2022-10-19T10:28:18;14.50;99.90
57264;DHT22;43113;53.124;6.092;2022-10-19T10:30:46;14.60;99.90
57264;DHT22;43113;53.124;6.092;2022-10-19T10:33:17;14.30;99.90
57264;DHT22;43113;53.124;6.092;2022-10-19T10:35:50;14.50;99.90
57264;DHT22;43113;53.124;6.092;2022-10-19T10:38:24;14.40;99.90
57264;DHT22;43113;53.124;6.092;2022-10-19T10:40:53;14.40;99.90
57264;DHT22;43113;53.124;6.092;2022-10-19T10:43:30;14.60;99.90
57264;DHT22;43113;53.124;6.092;2022-10-19T10:46:00;14.30;99.90
57264;DHT22;43113;53.124;6.092;2022-10-19T10:48:39;14.20;99.90
57264;DHT22;43113;53.124;6.092;2022-10-19T10:51:28;14.40;99.90
57264;DHT22;43113;53.124;6.092;2022-10-19T10:57:12;14.60;99.90
57264;DHT22;43113;53.124;6.092;2022-10-19T10:59:51;14.60;99.90
57264;DHT22;43113;53.124;6.092;2022-10-19T11:02:34;14.60;99.90
57264;DHT22;43113;53.124;6.092;2022-10-19T11:05:10;14.60;99.90
57264;DHT22;43113;53.124;6.092;2022-10-19T11:07:44;14.70;99.90
57264;DHT22;43113;53.124;6.092;2022-10-19T11:13:20;15.00;99.90
57264;DHT22;43113;53.124;6.092;2022-10-19T11:15:56;15.20;99.90
57264;DHT22;43113;53.124;6.092;2022-10-19T11:18:57;15.10;99.90
57264;DHT22;43113;53.124;6.092;2022-10-19T11:22:05;14.90;99.90
57264;DHT22;43113;53.124;6.092;2022-10-19T11:45:34;15.30;99.90
57264;DHT22;43113;53.124;6.092;2022-10-19T11:48:21;15.30;99.90
57264;DHT22;43113;53.124;6.092;2022-10-19T11:51:06;15.30;99.90
57264;DHT22;43113;53.124;6.092;2022-10-19T11:53:35;15.30;99.90
57264;DHT22;43113;53.124;6.092;2022-10-19T11:56:17;15.20;99.90
57264;DHT22;43113;53.124;6.092;2022-10-19T12:09:52;15.20;99.90
57264;DHT22;43113;53.124;6.092;2022-10-19T12:12:31;15.10;99.90
57264;DHT22;43113;53.124;6.092;2022-10-19T12:17:45;14.80;99.90
57264;DHT22;43113;53.124;6.092;2022-10-19T12:23:10;14.70;99.90
57264;DHT22;43113;53.124;6.092;2022-10-19T12:25:42;14.70;99.90
57264;DHT22;43113;53.124;6.092;2022-10-19T12:28:13;14.60;99.90
57264;DHT22;43113;53.124;6.092;2022-10-19T12:30:43;14.50;99.90
57264;DHT22;43113;53.124;6.092;2022-10-19T12:33:22;14.30;99.90
57264;DHT22;43113;53.124;6.092;2022-10-19T12:44:03;14.10;99.90
57264;DHT22;43113;53.124;6.092;2022-10-19T12:46:40;14.10;99.90
57264;DHT22;43113;53.124;6.092;2022-10-19T12:51:53;14.10;99.90
57264;DHT22;43113;53.124;6.092;2022-10-19T12:54:24;14.30;99.90
57264;DHT22;43113;53.124;6.092;2022-10-19T12:56:52;14.80;99.90
57264;DHT22;43113;53.124;6.092;2022-10-19T12:59:28;14.90;99.90
57264;DHT22;43113;53.124;6.092;2022-10-19T13:01:55;15.40;99.90
57264;DHT22;43113;53.124;6.092;2022-10-19T13:04:26;15.40;99.90
57264;DHT22;43113;53.124;6.092;2022-10-19T13:06:58;16.00;99.90
57264;DHT22;43113;53.124;6.092;2022-10-19T13:09:38;16.20;99.90
57264;DHT22;43113;53.124;6.092;2022-10-19T13:22:49;16.70;99.90
57264;DHT22;43113;53.124;6.092;2022-10-19T13:25:38;16.40;99.90
57264;DHT22;43113;53.124;6.092;2022-10-19T13:57:51;14.70;99.90
57264;DHT22;43113;53.124;6.092;2022-10-19T14:00:54;14.80;99.90
57264;DHT22;43113;53.124;6.092;2022-10-19T14:06:19;14.70;99.90
57264;DHT22;43113;53.124;6.092;2022-10-19T14:11:51;14.70;99.90
57264;DHT22;43113;53.124;6.092;2022-10-19T14:14:20;14.70;99.90
57264;DHT22;43113;53.124;6.092;2022-10-19T14:16:56;14.50;99.90
57264;DHT22;43113;53.124;6.092;2022-10-19T14:19:41;14.50;99.90
57264;DHT22;43113;53.124;6.092;2022-10-19T14:22:20;14.40;99.90
57264;DHT22;43113;53.124;6.092;2022-10-19T14:24:47;14.50;99.90
57264;DHT22;43113;53.124;6.092;2022-10-19T14:27:19;14.50;99.90
57264;DHT22;43113;53.124;6.092;2022-10-19T14:29:49;14.40;99.90
57264;DHT22;43113;53.124;6.092;2022-10-19T14:32:16;14.50;99.90
57264;DHT22;43113;53.124;6.092;2022-10-19T14:34:46;14.40;99.90
57264;DHT22;43113;53.124;6.092;2022-10-19T14:37:16;14.30;99.90
57264;DHT22;43113;53.124;6.092;2022-10-19T14:39:56;14.20;99.90
57264;DHT22;43113;53.124;6.092;2022-10-19T14:42:23;14.00;99.90
57264;DHT22;43113;53.124;6.092;2022-10-19T14:44:48;13.90;99.90
57264;DHT22;43113;53.124;6.092;2022-10-19T14:47:23;13.80;99.90
57264;DHT22;43113;53.124;6.092;2022-10-19T14:49:51;13.70;99.90
57264;DHT22;43113;53.124;6.092;2022-10-19T14:52:27;13.60;99.90
57264;DHT22;43113;53.124;6.092;2022-10-19T14:54:55;13.50;99.90
57264;DHT22;43113;53.124;6.092;2022-10-19T14:57:31;13.50;99.90
57264;DHT22;43113;53.124;6.092;2022-10-19T15:00:04;13.30;99.90
57264;DHT22;43113;53.124;6.092;2022-10-19T15:02:36;13.20;99.90
57264;DHT22;43113;53.124;6.092;2022-10-19T15:05:04;13.20;99.90
57264;DHT22;43113;53.124;6.092;2022-10-19T15:10:03;13.00;99.90
57264;DHT22;43113;53.124;6.092;2022-10-19T15:12:36;12.90;99.90
57264;DHT22;43113;53.124;6.092;2022-10-19T15:15:13;12.90;99.90
57264;DHT22;43113;53.124;6.092;2022-10-19T15:20:36;12.70;99.90
57264;DHT22;43113;53.124;6.092;2022-10-19T15:23:44;12.60;99.90
57264;DHT22;43113;53.124;6.092;2022-10-19T15:26:35;12.60;99.90
57264;DHT22;43113;53.124;6.092;2022-10-19T15:29:09;12.50;99.90
57264;DHT22;43113;53.124;6.092;2022-10-19T15:31:37;12.40;99.90
57264;DHT22;43113;53.124;6.092;2022-10-19T15:34:03;12.40;99.90
57264;DHT22;43113;53.124;6.092;2022-10-19T15:36:30;12.30;99.90
57264;DHT22;43113;53.124;6.092;2022-10-19T15:41:33;12.20;99.90
57264;DHT22;43113;53.124;6.092;2022-10-19T15:44:00;12.10;99.90
57264;DHT22;43113;53.124;6.092;2022-10-19T15:46:54;12.00;99.90
57264;DHT22;43113;53.124;6.092;2022-10-19T15:50:09;11.90;99.90
57264;DHT22;43113;53.124;6.092;2022-10-19T15:54:47;11.80;99.90
57264;DHT22;43113;53.124;6.092;2022-10-19T15:57:26;11.60;99.90
57264;DHT22;43113;53.124;6.092;2022-10-19T15:59:54;11.60;99.90
57264;DHT22;43113;53.124;6.092;2022-10-19T16:02:21;11.50;99.90
57264;DHT22;43113;53.124;6.092;2022-10-19T16:04:46;11.40;99.90
57264;DHT22;43113;53.124;6.092;2022-10-19T16:07:23;11.40;99.90
57264;DHT22;43113;53.124;6.092;2022-10-19T16:09:50;11.30;99.90
57264;DHT22;43113;53.124;6.092;2022-10-19T16:12:15;11.10;99.90
57264;DHT22;43113;53.124;6.092;2022-10-19T16:14:41;11.00;99.90
57264;DHT22;43113;53.124;6.092;2022-10-19T16:17:10;11.10;99.90
57264;DHT22;43113;53.124;6.092;2022-10-19T16:19:36;10.90;99.90
57264;DHT22;43113;53.124;6.092;2022-10-19T16:22:02;10.80;99.90
57264;DHT22;43113;53.124;6.092;2022-10-19T16:24:28;10.70;99.90
57264;DHT22;43113;53.124;6.092;2022-10-19T16:26:54;10.60;99.90
57264;DHT22;43113;53.124;6.092;2022-10-19T16:29:19;10.50;99.90
57264;DHT22;43113;53.124;6.092;2022-10-19T16:31:45;10.50;99.90
57264;DHT22;43113;53.124;6.092;2022-10-19T16:34:11;10.40;99.90
57264;DHT22;43113;53.124;6.092;2022-10-19T16:36:36;10.30;99.90
57264;DHT22;43113;53.124;6.092;2022-10-19T16:39:02;10.30;99.90
57264;DHT22;43113;53.124;6.092;2022-10-19T16:41:29;10.20;99.90
57264;DHT22;43113;53.124;6.092;2022-10-19T16:43:56;10.30;99.90
57264;DHT22;43113;53.124;6.092;2022-10-19T16:46:23;10.00;99.90
57264;DHT22;43113;53.124;6.092;2022-10-19T16:48:49;9.90;99.90
57264;DHT22;43113;53.124;6.092;2022-10-19T16:51:19;9.90;99.90
57264;DHT22;43113;53.124;6.092;2022-10-19T16:53:49;9.80;99.90
57264;DHT22;43113;53.124;6.092;2022-10-19T16:56:16;9.70;99.90
57264;DHT22;43113;53.124;6.092;2022-10-19T16:58:42;9.70;99.90
57264;DHT22;43113;53.124;6.092;2022-10-19T17:01:16;9.70;99.90
57264;DHT22;43113;53.124;6.092;2022-10-19T17:03:44;9.70;99.90
57264;DHT22;43113;53.124;6.092;2022-10-19T17:06:10;10.20;99.90
57264;DHT22;43113;53.124;6.092;2022-10-19T17:08:37;9.60;99.90
57264;DHT22;43113;53.124;6.092;2022-10-19T17:11:10;9.50;99.90
57264;DHT22;43113;53.124;6.092;2022-10-19T17:13:36;9.50;99.90
57264;DHT22;43113;53.124;6.092;2022-10-19T17:16:03;9.40;99.90
57264;DHT22;43113;53.124;6.092;2022-10-19T17:18:29;9.40;99.90
57264;DHT22;43113;53.124;6.092;2022-10-19T17:21:02;9.40;99.90
57264;DHT22;43113;53.124;6.092;2022-10-19T17:23:27;9.40;99.90
57264;DHT22;43113;53.124;6.092;2022-10-19T17:25:53;9.30;99.90
57264;DHT22;43113;53.124;6.092;2022-10-19T17:28:19;9.20;99.90
57264;DHT22;43113;53.124;6.092;2022-10-19T17:30:44;9.10;99.90
57264;DHT22;43113;53.124;6.092;2022-10-19T17:33:12;9.10;99.90
57264;DHT22;43113;53.124;6.092;2022-10-19T17:35:37;9.10;99.90
57264;DHT22;43113;53.124;6.092;2022-10-19T17:38:03;9.00;99.90
57264;DHT22;43113;53.124;6.092;2022-10-19T17:40:29;9.10;99.90
57264;DHT22;43113;53.124;6.092;2022-10-19T17:42:54;8.90;99.90
57264;DHT22;43113;53.124;6.092;2022-10-19T17:45:20;8.80;99.90
57264;DHT22;43113;53.124;6.092;2022-10-19T17:47:46;9.00;99.90
57264;DHT22;43113;53.124;6.092;2022-10-19T17:50:11;8.70;99.90
57264;DHT22;43113;53.124;6.092;2022-10-19T17:52:37;8.70;99.90
57264;DHT22;43113;53.124;6.092;2022-10-19T17:55:03;8.70;99.90
57264;DHT22;43113;53.124;6.092;2022-10-19T17:57:29;8.50;99.90
57264;DHT22;43113;53.124;6.092;2022-10-19T17:59:54;8.50;99.90
57264;DHT22;43113;53.124;6.092;2022-10-19T18:02:20;8.50;99.90
57264;DHT22;43113;53.124;6.092;2022-10-19T18:04:46;8.50;99.90
57264;DHT22;43113;53.124;6.092;2022-10-19T18:07:11;8.40;99.90
57264;DHT22;43113;53.124;6.092;2022-10-19T18:09:37;8.40;99.90
57264;DHT22;43113;53.124;6.092;2022-10-19T18:12:03;8.40;99.90
57264;DHT22;43113;53.124;6.092;2022-10-19T18:14:29;8.40;99.90
57264;DHT22;43113;53.124;6.092;2022-10-19T18:16:54;8.50;99.90
57264;DHT22;43113;53.124;6.092;2022-10-19T18:19:20;8.40;99.90
57264;DHT22;43113;53.124;6.092;2022-10-19T18:21:46;8.50;99.90
57264;DHT22;43113;53.124;6.092;2022-10-19T18:24:16;8.40;99.90
57264;DHT22;43113;53.124;6.092;2022-10-19T18:26:44;9.30;99.90
57264;DHT22;43113;53.124;6.092;2022-10-19T18:29:14;8.40;99.90
57264;DHT22;43113;53.124;6.092;2022-10-19T18:31:41;8.40;99.90
57264;DHT22;43113;53.124;6.092;2022-10-19T18:34:09;8.40;99.90
57264;DHT22;43113;53.124;6.092;2022-10-19T18:36:36;8.40;99.90
57264;DHT22;43113;53.124;6.092;2022-10-19T18:39:03;8.30;99.90
57264;DHT22;43113;53.124;6.092;2022-10-19T18:41:30;8.20;99.90
57264;DHT22;43113;53.124;6.092;2022-10-19T18:43:58;8.20;99.90
57264;DHT22;43113;53.124;6.092;2022-10-19T18:46:24;8.20;99.90